sensor_id;sensor_type;location;lat;lon;timestamp;temperature;humidity
44695;DHT22;32845;59.422;17.930;2023-05-10T00:01:18;9.70;93.10
44695;DHT22;32845;59.422;17.930;2023-05-10T00:05:48;9.60;93.50
44695;DHT22;32845;59.422;17.930;2023-05-10T00:10:19;9.50;93.90
44695;DHT22;32845;59.422;17.930;2023-05-10T00:14:49;9.50;94.40
44695;DHT22;32845;59.422;17.930;2023-05-10T00:19:20;9.50;94.40
44695;DHT22;32845;59.422;17.930;2023-05-10T00:23:52;9.40;94.70
44695;DHT22;32845;59.422;17.930;2023-05-10T00:28:22;9.40;95.00
44695;DHT22;32845;59.422;17.930;2023-05-10T00:32:53;9.30;95.50
44695;DHT22;32845;59.422;17.930;2023-05-10T00:37:24;9.30;95.90
44695;DHT22;32845;59.422;17.930;2023-05-10T00:41:55;9.30;96.50
44695;DHT22;32845;59.422;17.930;2023-05-10T00:46:26;9.20;97.20
44695;DHT22;32845;59.422;17.930;2023-05-10T00:50:57;9.20;97.30
44695;DHT22;32845;59.422;17.930;2023-05-10T00:55:28;9.10;97.80
44695;DHT22;32845;59.422;17.930;2023-05-10T00:59:59;9.00;98.80
44695;DHT22;32845;59.422;17.930;2023-05-10T01:04:30;8.90;98.60
44695;DHT22;32845;59.422;17.930;2023-05-10T01:09:00;8.80;99.10
44695;DHT22;32845;59.422;17.930;2023-05-10T01:13:36;8.80;99.90
44695;DHT22;32845;59.422;17.930;2023-05-10T01:18:08;8.80;99.90
44695;DHT22;32845;59.422;17.930;2023-05-10T01:23:04;8.70;99.90
44695;DHT22;32845;59.422;17.930;2023-05-10T01:33:19;8.60;99.90
44695;DHT22;32845;59.422;17.930;2023-05-10T01:42:53;8.30;99.90
44695;DHT22;32845;59.422;17.930;2023-05-10T01:47:34;8.20;99.90
44695;DHT22;32845;59.422;17.930;2023-05-10T01:52:11;8.10;99.90
44695;DHT22;32845;59.422;17.930;2023-05-10T01:56:43;8.10;99.90
44695;DHT22;32845;59.422;17.930;2023-05-10T02:01:16;8.00;99.90
44695;DHT22;32845;59.422;17.930;2023-05-10T02:05:48;8.00;99.90
44695;DHT22;32845;59.422;17.930;2023-05-10T02:10:19;8.00;99.90
44695;DHT22;32845;59.422;17.930;2023-05-10T02:14:52;8.00;99.90
44695;DHT22;32845;59.422;17.930;2023-05-10T02:19:25;7.90;99.90
44695;DHT22;32845;59.422;17.930;2023-05-10T02:23:57;7.90;99.90
44695;DHT22;32845;59.422;17.930;2023-05-10T02:28:29;7.90;99.90
44695;DHT22;32845;59.422;17.930;2023-05-10T02:33:02;8.00;99.90
44695;DHT22;32845;59.422;17.930;2023-05-10T02:37:36;7.90;99.90
44695;DHT22;32845;59.422;17.930;2023-05-10T02:42:07;7.90;99.90
44695;DHT22;32845;59.422;17.930;2023-05-10T02:46:38;7.90;99.90
44695;DHT22;32845;59.422;17.930;2023-05-10T02:51:12;7.90;99.90
44695;DHT22;32845;59.422;17.930;2023-05-10T02:55:45;7.90;99.90
44695;DHT22;32845;59.422;17.930;2023-05-10T03:00:18;7.90;99.90
44695;DHT22;32845;59.422;17.930;2023-05-10T03:04:49;7.80;99.90
44695;DHT22;32845;59.422;17.930;2023-05-10T03:09:19;7.90;99.90
44695;DHT22;32845;59.422;17.930;2023-05-10T03:24:02;8.10;99.90
44695;DHT22;32845;59.422;17.930;2023-05-10T03:28:36;8.20;99.90
44695;DHT22;32845;59.422;17.930;2023-05-10T03:33:07;8.20;99.90
44695;DHT22;32845;59.422;17.930;2023-05-10T03:37:37;8.30;99.90
44695;DHT22;32845;59.422;17.930;2023-05-10T03:42:08;8.30;99.90
44695;DHT22;32845;59.422;17.930;2023-05-10T03:46:42;8.40;99.90
44695;DHT22;32845;59.422;17.930;2023-05-10T03:51:12;8.50;99.90
44695;DHT22;32845;59.422;17.930;2023-05-10T03:55:43;8.60;99.90
44695;DHT22;32845;59.422;17.930;2023-05-10T04:00:14;8.70;99.90
44695;DHT22;32845;59.422;17.930;2023-05-10T04:04:44;8.80;99.90
44695;DHT22;32845;59.422;17.930;2023-05-10T04:09:15;8.90;99.90
44695;DHT22;32845;59.422;17.930;2023-05-10T04:13:46;9.00;99.90
44695;DHT22;32845;59.422;17.930;2023-05-10T04:18:17;9.10;99.90
44695;DHT22;32845;59.422;17.930;2023-05-10T04:22:48;9.20;99.90
44695;DHT22;32845;59.422;17.930;2023-05-10T04:27:18;9.30;99.90
44695;DHT22;32845;59.422;17.930;2023-05-10T04:31:49;9.40;99.90
44695;DHT22;32845;59.422;17.930;2023-05-10T04:36:19;9.50;99.90
44695;DHT22;32845;59.422;17.930;2023-05-10T04:40:50;9.70;99.90
44695;DHT22;32845;59.422;17.930;2023-05-10T04:45:21;9.80;99.90
44695;DHT22;32845;59.422;17.930;2023-05-10T04:49:52;9.90;99.90
44695;DHT22;32845;59.422;17.930;2023-05-10T04:54:23;10.00;99.90
44695;DHT22;32845;59.422;17.930;2023-05-10T04:58:54;10.10;99.90
44695;DHT22;32845;59.422;17.930;2023-05-10T05:03:24;10.20;99.90
44695;DHT22;32845;59.422;17.930;2023-05-10T05:07:55;10.40;99.90
44695;DHT22;32845;59.422;17.930;2023-05-10T05:12:26;10.50;99.90
44695;DHT22;32845;59.422;17.930;2023-05-10T05:16:57;10.60;99.90
44695;DHT22;32845;59.422;17.930;2023-05-10T05:21:27;10.80;99.90
44695;DHT22;32845;59.422;17.930;2023-05-10T05:25:59;10.90;99.90
44695;DHT22;32845;59.422;17.930;2023-05-10T05:30:29;11.00;99.90
44695;DHT22;32845;59.422;17.930;2023-05-10T05:35:00;11.10;99.90
44695;DHT22;32845;59.422;17.930;2023-05-10T05:39:30;11.20;99.90
44695;DHT22;32845;59.422;17.930;2023-05-10T05:44:01;11.30;99.90
44695;DHT22;32845;59.422;17.930;2023-05-10T05:48:32;11.40;99.90
44695;DHT22;32845;59.422;17.930;2023-05-10T05:53:02;11.60;99.90
44695;DHT22;32845;59.422;17.930;2023-05-10T05:57:33;11.70;99.90
44695;DHT22;32845;59.422;17.930;2023-05-10T06:02:04;11.80;99.90
44695;DHT22;32845;59.422;17.930;2023-05-10T06:06:34;12.00;99.90
44695;DHT22;32845;59.422;17.930;2023-05-10T06:11:05;12.10;99.90
44695;DHT22;32845;59.422;17.930;2023-05-10T06:15:35;12.20;99.60
44695;DHT22;32845;59.422;17.930;2023-05-10T06:20:06;12.30;99.20
44695;DHT22;32845;59.422;17.930;2023-05-10T06:24:37;12.40;98.50
44695;DHT22;32845;59.422;17.930;2023-05-10T06:29:08;12.50;97.80
44695;DHT22;32845;59.422;17.930;2023-05-10T06:33:38;12.70;97.20
44695;DHT22;32845;59.422;17.930;2023-05-10T06:38:09;12.80;97.20
44695;DHT22;32845;59.422;17.930;2023-05-10T06:42:41;13.00;97.10
44695;DHT22;32845;59.422;17.930;2023-05-10T06:47:11;13.20;96.60
44695;DHT22;32845;59.422;17.930;2023-05-10T06:51:42;13.30;96.10
44695;DHT22;32845;59.422;17.930;2023-05-10T06:56:12;13.50;95.40
44695;DHT22;32845;59.422;17.930;2023-05-10T07:00:43;13.60;94.90
44695;DHT22;32845;59.422;17.930;2023-05-10T07:05:15;13.80;94.20
44695;DHT22;32845;59.422;17.930;2023-05-10T07:09:46;13.90;94.10
44695;DHT22;32845;59.422;17.930;2023-05-10T07:14:16;14.10;94.80
44695;DHT22;32845;59.422;17.930;2023-05-10T07:18:47;14.20;93.60
44695;DHT22;32845;59.422;17.930;2023-05-10T07:23:18;14.40;93.50
44695;DHT22;32845;59.422;17.930;2023-05-10T07:27:48;14.50;93.30
44695;DHT22;32845;59.422;17.930;2023-05-10T07:32:19;14.70;92.90
44695;DHT22;32845;59.422;17.930;2023-05-10T07:36:50;14.80;91.20
44695;DHT22;32845;59.422;17.930;2023-05-10T07:41:20;14.90;91.30
44695;DHT22;32845;59.422;17.930;2023-05-10T07:45:51;15.10;90.80
44695;DHT22;32845;59.422;17.930;2023-05-10T07:50:21;15.20;90.60
44695;DHT22;32845;59.422;17.930;2023-05-10T07:54:52;15.40;89.70
44695;DHT22;32845;59.422;17.930;2023-05-10T07:59:23;15.50;87.30
44695;DHT22;32845;59.422;17.930;2023-05-10T08:03:54;15.70;85.70
44695;DHT22;32845;59.422;17.930;2023-05-10T08:08:25;15.80;85.70
44695;DHT22;32845;59.422;17.930;2023-05-10T08:12:55;15.90;85.80
44695;DHT22;32845;59.422;17.930;2023-05-10T08:17:26;16.10;84.20
44695;DHT22;32845;59.422;17.930;2023-05-10T08:21:56;16.20;81.90
44695;DHT22;32845;59.422;17.930;2023-05-10T08:26:27;16.30;83.10
44695;DHT22;32845;59.422;17.930;2023-05-10T08:30:58;16.50;83.00
44695;DHT22;32845;59.422;17.930;2023-05-10T08:35:28;16.60;81.00
44695;DHT22;32845;59.422;17.930;2023-05-10T08:39:59;16.70;78.50
44695;DHT22;32845;59.422;17.930;2023-05-10T08:44:34;16.80;78.30
44695;DHT22;32845;59.422;17.930;2023-05-10T08:49:07;16.90;78.80
44695;DHT22;32845;59.422;17.930;2023-05-10T08:53:39;17.10;77.40
44695;DHT22;32845;59.422;17.930;2023-05-10T08:58:09;17.20;76.60
44695;DHT22;32845;59.422;17.930;2023-05-10T09:02:40;17.30;76.20
44695;DHT22;32845;59.422;17.930;2023-05-10T09:07:12;17.40;72.00
44695;DHT22;32845;59.422;17.930;2023-05-10T09:11:43;17.50;70.00
44695;DHT22;32845;59.422;17.930;2023-05-10T09:16:14;17.50;74.90
44695;DHT22;32845;59.422;17.930;2023-05-10T09:20:45;17.60;70.70
44695;DHT22;32845;59.422;17.930;2023-05-10T09:25:16;17.70;73.10
44695;DHT22;32845;59.422;17.930;2023-05-10T09:29:47;17.90;72.50
44695;DHT22;32845;59.422;17.930;2023-05-10T09:34:18;18.10;73.60
44695;DHT22;32845;59.422;17.930;2023-05-10T09:38:51;18.10;67.10
44695;DHT22;32845;59.422;17.930;2023-05-10T09:43:22;18.10;71.00
44695;DHT22;32845;59.422;17.930;2023-05-10T09:47:54;18.10;69.10
44695;DHT22;32845;59.422;17.930;2023-05-10T09:52:24;18.30;71.60
44695;DHT22;32845;59.422;17.930;2023-05-10T09:56:55;18.40;68.20
44695;DHT22;32845;59.422;17.930;2023-05-10T10:01:26;18.50;68.80
44695;DHT22;32845;59.422;17.930;2023-05-10T10:05:57;18.60;68.60
44695;DHT22;32845;59.422;17.930;2023-05-10T10:10:28;18.70;70.60
44695;DHT22;32845;59.422;17.930;2023-05-10T10:14:59;18.90;68.60
44695;DHT22;32845;59.422;17.930;2023-05-10T10:19:33;19.00;66.10
44695;DHT22;32845;59.422;17.930;2023-05-10T10:24:04;19.00;66.10
44695;DHT22;32845;59.422;17.930;2023-05-10T10:28:48;19.10;65.10
44695;DHT22;32845;59.422;17.930;2023-05-10T10:38:04;19.20;63.40
44695;DHT22;32845;59.422;17.930;2023-05-10T10:42:44;19.30;63.80
44695;DHT22;32845;59.422;17.930;2023-05-10T10:47:28;19.30;64.00
44695;DHT22;32845;59.422;17.930;2023-05-10T10:57:13;19.60;64.10
44695;DHT22;32845;59.422;17.930;2023-05-10T11:01:44;20.10;60.30
44695;DHT22;32845;59.422;17.930;2023-05-10T11:06:29;20.20;61.80
44695;DHT22;32845;59.422;17.930;2023-05-10T11:15:38;20.70;61.80
44695;DHT22;32845;59.422;17.930;2023-05-10T11:20:10;21.00;62.20
44695;DHT22;32845;59.422;17.930;2023-05-10T11:24:56;21.40;62.20
44695;DHT22;32845;59.422;17.930;2023-05-10T11:29:27;21.70;56.60
44695;DHT22;32845;59.422;17.930;2023-05-10T11:33:58;21.80;56.80
44695;DHT22;32845;59.422;17.930;2023-05-10T11:38:32;21.70;56.60
44695;DHT22;32845;59.422;17.930;2023-05-10T11:43:04;22.00;59.50
44695;DHT22;32845;59.422;17.930;2023-05-10T11:47:34;22.60;57.80
44695;DHT22;32845;59.422;17.930;2023-05-10T11:52:08;22.70;56.70
44695;DHT22;32845;59.422;17.930;2023-05-10T11:56:39;23.20;55.50
44695;DHT22;32845;59.422;17.930;2023-05-10T12:01:10;24.40;54.00
44695;DHT22;32845;59.422;17.930;2023-05-10T12:05:41;25.00;51.70
44695;DHT22;32845;59.422;17.930;2023-05-10T12:10:13;25.30;51.40
44695;DHT22;32845;59.422;17.930;2023-05-10T12:14:50;25.70;51.80
44695;DHT22;32845;59.422;17.930;2023-05-10T12:19:21;26.00;48.70
44695;DHT22;32845;59.422;17.930;2023-05-10T12:23:58;26.00;48.60
44695;DHT22;32845;59.422;17.930;2023-05-10T12:28:30;25.70;50.30
44695;DHT22;32845;59.422;17.930;2023-05-10T12:33:06;25.40;50.70
44695;DHT22;32845;59.422;17.930;2023-05-10T12:37:37;25.30;50.00
44695;DHT22;32845;59.422;17.930;2023-05-10T12:42:10;25.10;51.30
44695;DHT22;32845;59.422;17.930;2023-05-10T12:46:40;24.80;50.90
44695;DHT22;32845;59.422;17.930;2023-05-10T12:51:11;24.50;51.90
44695;DHT22;32845;59.422;17.930;2023-05-10T12:55:47;24.30;51.20
44695;DHT22;32845;59.422;17.930;2023-05-10T13:00:18;23.90;52.20
44695;DHT22;32845;59.422;17.930;2023-05-10T13:04:49;23.80;52.30
44695;DHT22;32845;59.422;17.930;2023-05-10T13:09:20;23.50;52.70
44695;DHT22;32845;59.422;17.930;2023-05-10T13:13:51;23.30;52.10
44695;DHT22;32845;59.422;17.930;2023-05-10T13:18:22;22.90;53.90
44695;DHT22;32845;59.422;17.930;2023-05-10T13:22:53;22.60;53.40
44695;DHT22;32845;59.422;17.930;2023-05-10T13:27:23;22.60;54.40
44695;DHT22;32845;59.422;17.930;2023-05-10T13:31:54;22.40;53.50
44695;DHT22;32845;59.422;17.930;2023-05-10T13:36:25;22.20;54.00
44695;DHT22;32845;59.422;17.930;2023-05-10T13:40:55;22.10;52.20
44695;DHT22;32845;59.422;17.930;2023-05-10T13:45:26;21.80;53.90
44695;DHT22;32845;59.422;17.930;2023-05-10T13:49:56;21.70;53.50
44695;DHT22;32845;59.422;17.930;2023-05-10T13:54:28;21.60;53.30
44695;DHT22;32845;59.422;17.930;2023-05-10T13:58:59;21.40;53.70
44695;DHT22;32845;59.422;17.930;2023-05-10T14:03:30;21.20;54.00
44695;DHT22;32845;59.422;17.930;2023-05-10T14:08:01;20.70;54.20
44695;DHT22;32845;59.422;17.930;2023-05-10T14:12:31;20.50;55.00
44695;DHT22;32845;59.422;17.930;2023-05-10T14:17:02;20.30;54.70
44695;DHT22;32845;59.422;17.930;2023-05-10T14:21:33;20.00;55.10
44695;DHT22;32845;59.422;17.930;2023-05-10T14:26:03;19.90;55.20
44695;DHT22;32845;59.422;17.930;2023-05-10T14:30:34;19.70;55.50
44695;DHT22;32845;59.422;17.930;2023-05-10T14:35:05;19.50;55.80
44695;DHT22;32845;59.422;17.930;2023-05-10T14:39:37;19.40;56.60
44695;DHT22;32845;59.422;17.930;2023-05-10T14:44:08;19.40;56.20
44695;DHT22;32845;59.422;17.930;2023-05-10T14:48:40;19.40;55.90
44695;DHT22;32845;59.422;17.930;2023-05-10T14:53:10;19.30;55.90
44695;DHT22;32845;59.422;17.930;2023-05-10T14:57:41;19.20;56.30
44695;DHT22;32845;59.422;17.930;2023-05-10T15:02:12;19.10;56.10
44695;DHT22;32845;59.422;17.930;2023-05-10T15:06:43;18.90;56.20
44695;DHT22;32845;59.422;17.930;2023-05-10T15:11:14;18.80;56.90
44695;DHT22;32845;59.422;17.930;2023-05-10T15:15:45;18.70;57.00
44695;DHT22;32845;59.422;17.930;2023-05-10T15:20:15;18.50;57.00
44695;DHT22;32845;59.422;17.930;2023-05-10T15:24:46;18.40;57.30
44695;DHT22;32845;59.422;17.930;2023-05-10T15:29:17;18.40;56.80
44695;DHT22;32845;59.422;17.930;2023-05-10T15:33:50;18.20;57.30
44695;DHT22;32845;59.422;17.930;2023-05-10T15:38:21;18.10;57.60
44695;DHT22;32845;59.422;17.930;2023-05-10T15:42:51;17.80;56.80
44695;DHT22;32845;59.422;17.930;2023-05-10T15:47:22;17.70;57.30
44695;DHT22;32845;59.422;17.930;2023-05-10T15:51:53;17.50;57.90
44695;DHT22;32845;59.422;17.930;2023-05-10T15:56:23;17.40;58.20
44695;DHT22;32845;59.422;17.930;2023-05-10T16:00:54;17.30;57.90
44695;DHT22;32845;59.422;17.930;2023-05-10T16:05:24;17.20;57.80
44695;DHT22;32845;59.422;17.930;2023-05-10T16:09:58;17.20;58.40
44695;DHT22;32845;59.422;17.930;2023-05-10T16:14:31;17.20;58.30
44695;DHT22;32845;59.422;17.930;2023-05-10T16:19:01;17.20;58.60
44695;DHT22;32845;59.422;17.930;2023-05-10T16:23:33;17.10;58.50
44695;DHT22;32845;59.422;17.930;2023-05-10T16:28:03;17.10;58.50
44695;DHT22;32845;59.422;17.930;2023-05-10T16:32:34;16.90;58.20
44695;DHT22;32845;59.422;17.930;2023-05-10T16:37:05;16.90;58.90
44695;DHT22;32845;59.422;17.930;2023-05-10T16:41:36;16.80;58.30
44695;DHT22;32845;59.422;17.930;2023-05-10T16:46:10;16.80;58.50
44695;DHT22;32845;59.422;17.930;2023-05-10T16:50:44;16.80;58.80
44695;DHT22;32845;59.422;17.930;2023-05-10T16:55:15;16.70;58.80
44695;DHT22;32845;59.422;17.930;2023-05-10T16:59:45;16.70;59.10
44695;DHT22;32845;59.422;17.930;2023-05-10T17:04:16;16.60;58.90
44695;DHT22;32845;59.422;17.930;2023-05-10T17:08:47;16.60;59.40
44695;DHT22;32845;59.422;17.930;2023-05-10T17:13:17;16.60;59.20
44695;DHT22;32845;59.422;17.930;2023-05-10T17:17:48;16.50;59.40
44695;DHT22;32845;59.422;17.930;2023-05-10T17:22:19;16.40;59.40
44695;DHT22;32845;59.422;17.930;2023-05-10T17:26:49;16.30;59.10
44695;DHT22;32845;59.422;17.930;2023-05-10T17:31:20;16.10;59.40
44695;DHT22;32845;59.422;17.930;2023-05-10T17:35:51;16.00;59.70
44695;DHT22;32845;59.422;17.930;2023-05-10T17:40:21;15.80;59.50
44695;DHT22;32845;59.422;17.930;2023-05-10T17:44:52;15.60;59.90
44695;DHT22;32845;59.422;17.930;2023-05-10T17:49:23;15.50;60.00
44695;DHT22;32845;59.422;17.930;2023-05-10T17:53:53;15.40;60.10
44695;DHT22;32845;59.422;17.930;2023-05-10T17:58:24;15.30;60.40
44695;DHT22;32845;59.422;17.930;2023-05-10T18:02:54;15.10;60.90
44695;DHT22;32845;59.422;17.930;2023-05-10T18:07:25;15.00;61.30
44695;DHT22;32845;59.422;17.930;2023-05-10T18:11:56;14.90;61.30
44695;DHT22;32845;59.422;17.930;2023-05-10T18:16:27;14.80;61.50
44695;DHT22;32845;59.422;17.930;2023-05-10T18:20:57;14.70;61.60
44695;DHT22;32845;59.422;17.930;2023-05-10T18:25:28;14.60;62.10
44695;DHT22;32845;59.422;17.930;2023-05-10T18:29:58;14.60;61.60
44695;DHT22;32845;59.422;17.930;2023-05-10T18:34:29;14.40;62.00
44695;DHT22;32845;59.422;17.930;2023-05-10T18:38:59;14.40;62.20
44695;DHT22;32845;59.422;17.930;2023-05-10T18:43:30;14.20;62.20
44695;DHT22;32845;59.422;17.930;2023-05-10T18:48:02;14.20;62.60
44695;DHT22;32845;59.422;17.930;2023-05-10T18:52:33;14.10;62.90
44695;DHT22;32845;59.422;17.930;2023-05-10T18:57:05;14.00;63.60
44695;DHT22;32845;59.422;17.930;2023-05-10T19:01:36;13.80;64.10
44695;DHT22;32845;59.422;17.930;2023-05-10T19:06:07;13.60;64.70
44695;DHT22;32845;59.422;17.930;2023-05-10T19:10:37;13.50;65.40
44695;DHT22;32845;59.422;17.930;2023-05-10T19:15:08;13.40;66.60
44695;DHT22;32845;59.422;17.930;2023-05-10T19:19:39;13.20;66.50
44695;DHT22;32845;59.422;17.930;2023-05-10T19:24:10;13.10;66.80
44695;DHT22;32845;59.422;17.930;2023-05-10T19:28:41;13.00;67.10
44695;DHT22;32845;59.422;17.930;2023-05-10T19:33:11;12.90;67.60
44695;DHT22;32845;59.422;17.930;2023-05-10T19:37:42;12.90;67.50
44695;DHT22;32845;59.422;17.930;2023-05-10T19:42:15;12.70;68.40
44695;DHT22;32845;59.422;17.930;2023-05-10T19:46:46;12.60;69.00
44695;DHT22;32845;59.422;17.930;2023-05-10T19:51:16;12.40;69.70
44695;DHT22;32845;59.422;17.930;2023-05-10T19:55:47;12.30;70.50
44695;DHT22;32845;59.422;17.930;2023-05-10T20:00:17;12.20;71.20
44695;DHT22;32845;59.422;17.930;2023-05-10T20:04:48;12.10;71.80
44695;DHT22;32845;59.422;17.930;2023-05-10T20:09:19;11.90;72.40
44695;DHT22;32845;59.422;17.930;2023-05-10T20:13:49;11.80;73.10
44695;DHT22;32845;59.422;17.930;2023-05-10T20:18:20;11.70;73.40
44695;DHT22;32845;59.422;17.930;2023-05-10T20:22:51;11.60;74.00
44695;DHT22;32845;59.422;17.930;2023-05-10T20:27:22;11.60;74.20
44695;DHT22;32845;59.422;17.930;2023-05-10T20:31:52;11.50;74.90
44695;DHT22;32845;59.422;17.930;2023-05-10T20:36:23;11.40;75.60
44695;DHT22;32845;59.422;17.930;2023-05-10T20:40:54;11.30;75.90
44695;DHT22;32845;59.422;17.930;2023-05-10T20:45:24;11.20;76.50
44695;DHT22;32845;59.422;17.930;2023-05-10T20:49:55;11.10;76.90
44695;DHT22;32845;59.422;17.930;2023-05-10T20:54:25;11.10;76.60
44695;DHT22;32845;59.422;17.930;2023-05-10T20:58:56;11.10;76.40
44695;DHT22;32845;59.422;17.930;2023-05-10T21:03:27;11.10;77.00
44695;DHT22;32845;59.422;17.930;2023-05-10T21:07:57;11.10;77.60
44695;DHT22;32845;59.422;17.930;2023-05-10T21:12:28;11.10;78.00
44695;DHT22;32845;59.422;17.930;2023-05-10T21:16:59;11.00;78.40
44695;DHT22;32845;59.422;17.930;2023-05-10T21:21:29;10.90;79.10
44695;DHT22;32845;59.422;17.930;2023-05-10T21:26:02;10.90;79.50
44695;DHT22;32845;59.422;17.930;2023-05-10T21:30:33;10.80;79.70
44695;DHT22;32845;59.422;17.930;2023-05-10T21:35:04;10.70;80.60
44695;DHT22;32845;59.422;17.930;2023-05-10T21:39:34;10.70;81.30
44695;DHT22;32845;59.422;17.930;2023-05-10T21:44:05;10.60;81.80
44695;DHT22;32845;59.422;17.930;2023-05-10T21:48:35;10.60;82.60
44695;DHT22;32845;59.422;17.930;2023-05-10T21:53:06;10.50;83.70
44695;DHT22;32845;59.422;17.930;2023-05-10T21:57:37;10.40;83.90
44695;DHT22;32845;59.422;17.930;2023-05-10T22:02:07;10.40;84.70
44695;DHT22;32845;59.422;17.930;2023-05-10T22:06:38;10.30;85.30
44695;DHT22;32845;59.422;17.930;2023-05-10T22:11:08;10.20;85.50
44695;DHT22;32845;59.422;17.930;2023-05-10T22:15:39;10.20;86.10
44695;DHT22;32845;59.422;17.930;2023-05-10T22:20:10;10.20;86.30
44695;DHT22;32845;59.422;17.930;2023-05-10T22:24:41;10.10;86.70
44695;DHT22;32845;59.422;17.930;2023-05-10T22:29:11;10.10;87.10
44695;DHT22;32845;59.422;17.930;2023-05-10T22:33:42;10.00;87.30
44695;DHT22;32845;59.422;17.930;2023-05-10T22:38:12;10.00;87.50
44695;DHT22;32845;59.422;17.930;2023-05-10T22:42:43;9.90;87.70
44695;DHT22;32845;59.422;17.930;2023-05-10T22:47:13;9.90;88.60
44695;DHT22;32845;59.422;17.930;2023-05-10T22:51:45;9.80;88.60
44695;DHT22;32845;59.422;17.930;2023-05-10T22:56:16;9.80;88.80
44695;DHT22;32845;59.422;17.930;2023-05-10T23:00:47;9.70;89.30
44695;DHT22;32845;59.422;17.930;2023-05-10T23:05:17;9.70;89.60
44695;DHT22;32845;59.422;17.930;2023-05-10T23:09:48;9.60;89.60
44695;DHT22;32845;59.422;17.930;2023-05-10T23:14:19;9.60;89.80
44695;DHT22;32845;59.422;17.930;2023-05-10T23:18:49;9.50;90.00
44695;DHT22;32845;59.422;17.930;2023-05-10T23:23:20;9.40;90.20
44695;DHT22;32845;59.422;17.930;2023-05-10T23:27:51;9.40;90.30
44695;DHT22;32845;59.422;17.930;2023-05-10T23:32:22;9.30;90.70
44695;DHT22;32845;59.422;17.930;2023-05-10T23:36:53;9.30;90.60
44695;DHT22;32845;59.422;17.930;2023-05-10T23:41:23;9.20;90.80
44695;DHT22;32845;59.422;17.930;2023-05-10T23:45:56;9.20;91.10
44695;DHT22;32845;59.422;17.930;2023-05-10T23:50:27;9.10;91.00
44695;DHT22;32845;59.422;17.930;2023-05-10T23:54:58;9.00;91.20
44695;DHT22;32845;59.422;17.930;2023-05-10T23:59:28;8.90;91.40
